sensor_id;sensor_type;location;lat;lon;timestamp;P1;durP1;ratioP1;P2;durP2;ratioP2
51692;SDS011;37777;53.066;21.638;2022-12-11T00:05:12;29.65;;;12.38;;
51692;SDS011;37777;53.066;21.638;2022-12-11T00:12:14;28.92;;;10.80;;
51692;SDS011;37777;53.066;21.638;2022-12-11T00:19:16;28.58;;;12.05;;
51692;SDS011;37777;53.066;21.638;2022-12-11T00:26:18;34.08;;;11.88;;
51692;SDS011;37777;53.066;21.638;2022-12-11T00:33:20;27.83;;;12.07;;
51692;SDS011;37777;53.066;21.638;2022-12-11T00:40:22;23.42;;;11.32;;
51692;SDS011;37777;53.066;21.638;2022-12-11T00:47:24;24.27;;;10.25;;
51692;SDS011;37777;53.066;21.638;2022-12-11T00:54:26;20.67;;;10.40;;
51692;SDS011;37777;53.066;21.638;2022-12-11T01:01:28;25.20;;;10.52;;
51692;SDS011;37777;53.066;21.638;2022-12-11T01:08:30;29.40;;;10.98;;
51692;SDS011;37777;53.066;21.638;2022-12-11T01:15:39;26.92;;;10.40;;
51692;SDS011;37777;53.066;21.638;2022-12-11T01:22:43;24.77;;;10.13;;
51692;SDS011;37777;53.066;21.638;2022-12-11T01:29:45;31.75;;;10.75;;
51692;SDS011;37777;53.066;21.638;2022-12-11T01:36:47;21.00;;;10.00;;
51692;SDS011;37777;53.066;21.638;2022-12-11T01:44:03;26.50;;;9.93;;
51692;SDS011;37777;53.066;21.638;2022-12-11T01:51:07;23.52;;;9.50;;
51692;SDS011;37777;53.066;21.638;2022-12-11T01:58:10;32.92;;;11.00;;
51692;SDS011;37777;53.066;21.638;2022-12-11T02:05:12;27.35;;;9.80;;
51692;SDS011;37777;53.066;21.638;2022-12-11T02:40:54;20.25;;;8.63;;
51692;SDS011;37777;53.066;21.638;2022-12-11T02:47:57;20.33;;;8.77;;
51692;SDS011;37777;53.066;21.638;2022-12-11T02:55:00;21.80;;;8.38;;
51692;SDS011;37777;53.066;21.638;2022-12-11T03:02:04;21.30;;;8.60;;
51692;SDS011;37777;53.066;21.638;2022-12-11T03:09:06;27.92;;;8.60;;
51692;SDS011;37777;53.066;21.638;2022-12-11T03:16:44;17.10;;;7.20;;
51692;SDS011;37777;53.066;21.638;2022-12-11T03:23:43;18.92;;;8.68;;
51692;SDS011;37777;53.066;21.638;2022-12-11T03:30:54;17.33;;;8.45;;
51692;SDS011;37777;53.066;21.638;2022-12-11T03:37:59;21.90;;;9.20;;
51692;SDS011;37777;53.066;21.638;2022-12-11T03:45:04;13.20;;;6.53;;
51692;SDS011;37777;53.066;21.638;2022-12-11T03:52:07;17.95;;;8.52;;
51692;SDS011;37777;53.066;21.638;2022-12-11T03:59:10;12.77;;;7.00;;
51692;SDS011;37777;53.066;21.638;2022-12-11T04:06:13;17.30;;;8.50;;
51692;SDS011;37777;53.066;21.638;2022-12-11T04:13:15;11.63;;;6.68;;
51692;SDS011;37777;53.066;21.638;2022-12-11T04:20:17;17.42;;;8.90;;
51692;SDS011;37777;53.066;21.638;2022-12-11T04:27:38;29.88;;;10.15;;
51692;SDS011;37777;53.066;21.638;2022-12-11T04:34:52;23.55;;;9.82;;
51692;SDS011;37777;53.066;21.638;2022-12-11T04:41:54;20.17;;;9.50;;
51692;SDS011;37777;53.066;21.638;2022-12-11T04:48:56;14.13;;;7.78;;
51692;SDS011;37777;53.066;21.638;2022-12-11T04:55:58;16.17;;;8.82;;
51692;SDS011;37777;53.066;21.638;2022-12-11T05:03:00;18.38;;;8.15;;
51692;SDS011;37777;53.066;21.638;2022-12-11T05:10:03;27.05;;;9.70;;
51692;SDS011;37777;53.066;21.638;2022-12-11T05:17:06;16.80;;;8.82;;
51692;SDS011;37777;53.066;21.638;2022-12-11T05:24:07;17.52;;;9.13;;
51692;SDS011;37777;53.066;21.638;2022-12-11T05:31:13;24.38;;;8.43;;
51692;SDS011;37777;53.066;21.638;2022-12-11T05:38:18;20.58;;;10.45;;
51692;SDS011;37777;53.066;21.638;2022-12-11T05:45:20;19.85;;;9.63;;
51692;SDS011;37777;53.066;21.638;2022-12-11T05:52:22;19.58;;;8.50;;
51692;SDS011;37777;53.066;21.638;2022-12-11T05:59:24;21.02;;;10.68;;
51692;SDS011;37777;53.066;21.638;2022-12-11T06:06:26;25.52;;;10.20;;
51692;SDS011;37777;53.066;21.638;2022-12-11T06:13:29;24.85;;;8.85;;
51692;SDS011;37777;53.066;21.638;2022-12-11T06:20:31;27.02;;;9.52;;
51692;SDS011;37777;53.066;21.638;2022-12-11T06:27:34;29.35;;;10.80;;
51692;SDS011;37777;53.066;21.638;2022-12-11T06:34:36;24.00;;;10.07;;
51692;SDS011;37777;53.066;21.638;2022-12-11T06:41:38;21.65;;;8.90;;
51692;SDS011;37777;53.066;21.638;2022-12-11T06:48:40;29.48;;;11.15;;
51692;SDS011;37777;53.066;21.638;2022-12-11T06:55:43;19.45;;;8.80;;
51692;SDS011;37777;53.066;21.638;2022-12-11T07:02:45;24.83;;;9.90;;
51692;SDS011;37777;53.066;21.638;2022-12-11T07:09:47;28.45;;;10.57;;
51692;SDS011;37777;53.066;21.638;2022-12-11T07:16:50;14.98;;;7.43;;
51692;SDS011;37777;53.066;21.638;2022-12-11T07:23:52;22.63;;;10.00;;
51692;SDS011;37777;53.066;21.638;2022-12-11T07:30:54;21.55;;;10.07;;
51692;SDS011;37777;53.066;21.638;2022-12-11T07:37:56;13.50;;;7.65;;
51692;SDS011;37777;53.066;21.638;2022-12-11T07:45:00;12.32;;;7.53;;
51692;SDS011;37777;53.066;21.638;2022-12-11T07:52:02;18.05;;;9.35;;
51692;SDS011;37777;53.066;21.638;2022-12-11T07:59:04;16.58;;;8.68;;
51692;SDS011;37777;53.066;21.638;2022-12-11T08:06:07;22.85;;;8.93;;
51692;SDS011;37777;53.066;21.638;2022-12-11T08:13:10;21.60;;;8.68;;
51692;SDS011;37777;53.066;21.638;2022-12-11T08:20:12;18.30;;;9.70;;
51692;SDS011;37777;53.066;21.638;2022-12-11T08:27:14;26.38;;;9.25;;
51692;SDS011;37777;53.066;21.638;2022-12-11T08:34:16;18.83;;;9.38;;
51692;SDS011;37777;53.066;21.638;2022-12-11T08:41:20;15.73;;;6.93;;
51692;SDS011;37777;53.066;21.638;2022-12-11T08:48:26;15.45;;;8.35;;
51692;SDS011;37777;53.066;21.638;2022-12-11T08:55:29;14.40;;;7.53;;
51692;SDS011;37777;53.066;21.638;2022-12-11T09:02:30;12.73;;;6.80;;
51692;SDS011;37777;53.066;21.638;2022-12-11T09:09:32;13.23;;;7.72;;
51692;SDS011;37777;53.066;21.638;2022-12-11T09:16:36;15.55;;;7.85;;
51692;SDS011;37777;53.066;21.638;2022-12-11T09:23:41;17.35;;;7.35;;
51692;SDS011;37777;53.066;21.638;2022-12-11T09:30:44;15.43;;;7.43;;
51692;SDS011;37777;53.066;21.638;2022-12-11T09:37:46;12.48;;;7.22;;
51692;SDS011;37777;53.066;21.638;2022-12-11T10:21:08;10.68;;;7.07;;
51692;SDS011;37777;53.066;21.638;2022-12-11T10:28:15;13.13;;;7.18;;
51692;SDS011;37777;53.066;21.638;2022-12-11T10:35:19;16.80;;;7.20;;
51692;SDS011;37777;53.066;21.638;2022-12-11T10:42:28;14.30;;;6.75;;
51692;SDS011;37777;53.066;21.638;2022-12-11T10:49:32;15.75;;;7.93;;
51692;SDS011;37777;53.066;21.638;2022-12-11T10:56:36;16.38;;;7.90;;
51692;SDS011;37777;53.066;21.638;2022-12-11T11:11:12;13.05;;;6.30;;
51692;SDS011;37777;53.066;21.638;2022-12-11T11:18:24;17.55;;;8.75;;
51692;SDS011;37777;53.066;21.638;2022-12-11T11:25:28;12.55;;;7.10;;
51692;SDS011;37777;53.066;21.638;2022-12-11T11:32:34;7.18;;;5.43;;
51692;SDS011;37777;53.066;21.638;2022-12-11T11:39:39;11.80;;;6.30;;
51692;SDS011;37777;53.066;21.638;2022-12-11T11:46:54;15.40;;;6.72;;
51692;SDS011;37777;53.066;21.638;2022-12-11T11:54:04;10.13;;;5.60;;
51692;SDS011;37777;53.066;21.638;2022-12-11T12:01:28;9.70;;;6.95;;
51692;SDS011;37777;53.066;21.638;2022-12-11T12:15:42;11.00;;;6.13;;
51692;SDS011;37777;53.066;21.638;2022-12-11T12:30:03;7.53;;;4.97;;
51692;SDS011;37777;53.066;21.638;2022-12-11T12:44:29;18.58;;;6.38;;
51692;SDS011;37777;53.066;21.638;2022-12-11T12:51:38;8.68;;;7.10;;
51692;SDS011;37777;53.066;21.638;2022-12-11T12:58:50;8.10;;;5.35;;
51692;SDS011;37777;53.066;21.638;2022-12-11T13:06:08;9.77;;;4.95;;
51692;SDS011;37777;53.066;21.638;2022-12-11T13:28:47;10.25;;;6.13;;
51692;SDS011;37777;53.066;21.638;2022-12-11T13:36:14;10.50;;;6.78;;
51692;SDS011;37777;53.066;21.638;2022-12-11T13:43:26;6.55;;;5.05;;
51692;SDS011;37777;53.066;21.638;2022-12-11T13:50:31;6.70;;;4.60;;
51692;SDS011;37777;53.066;21.638;2022-12-11T13:57:43;13.77;;;5.53;;
51692;SDS011;37777;53.066;21.638;2022-12-11T14:04:50;7.80;;;5.55;;
51692;SDS011;37777;53.066;21.638;2022-12-11T14:11:53;14.27;;;8.55;;
51692;SDS011;37777;53.066;21.638;2022-12-11T14:19:01;13.73;;;6.82;;
51692;SDS011;37777;53.066;21.638;2022-12-11T14:26:17;7.22;;;5.95;;
51692;SDS011;37777;53.066;21.638;2022-12-11T14:33:28;11.82;;;6.40;;
51692;SDS011;37777;53.066;21.638;2022-12-11T14:40:51;7.40;;;5.05;;
51692;SDS011;37777;53.066;21.638;2022-12-11T14:48:01;8.85;;;5.90;;
51692;SDS011;37777;53.066;21.638;2022-12-11T14:55:23;4.18;;;3.60;;
51692;SDS011;37777;53.066;21.638;2022-12-11T15:03:05;8.38;;;5.70;;
51692;SDS011;37777;53.066;21.638;2022-12-11T15:10:21;5.22;;;4.65;;
51692;SDS011;37777;53.066;21.638;2022-12-11T15:17:32;11.48;;;5.72;;
51692;SDS011;37777;53.066;21.638;2022-12-11T15:31:44;5.40;;;4.80;;
51692;SDS011;37777;53.066;21.638;2022-12-11T15:38:48;11.50;;;6.13;;
51692;SDS011;37777;53.066;21.638;2022-12-11T15:45:50;10.05;;;6.00;;
51692;SDS011;37777;53.066;21.638;2022-12-11T15:52:54;14.18;;;6.40;;
51692;SDS011;37777;53.066;21.638;2022-12-11T15:59:56;12.20;;;6.28;;
51692;SDS011;37777;53.066;21.638;2022-12-11T16:06:59;42.05;;;7.22;;
51692;SDS011;37777;53.066;21.638;2022-12-11T16:14:04;10.60;;;6.20;;
51692;SDS011;37777;53.066;21.638;2022-12-11T16:21:06;10.30;;;6.55;;
51692;SDS011;37777;53.066;21.638;2022-12-11T16:28:09;12.93;;;7.68;;
51692;SDS011;37777;53.066;21.638;2022-12-11T16:35:14;11.57;;;7.57;;
51692;SDS011;37777;53.066;21.638;2022-12-11T16:42:27;8.75;;;5.82;;
51692;SDS011;37777;53.066;21.638;2022-12-11T16:49:29;9.43;;;6.90;;
51692;SDS011;37777;53.066;21.638;2022-12-11T16:56:34;7.15;;;5.47;;
51692;SDS011;37777;53.066;21.638;2022-12-11T17:03:37;6.88;;;5.47;;
51692;SDS011;37777;53.066;21.638;2022-12-11T17:10:41;5.80;;;4.57;;
51692;SDS011;37777;53.066;21.638;2022-12-11T17:17:43;10.85;;;7.43;;
51692;SDS011;37777;53.066;21.638;2022-12-11T17:24:46;10.57;;;7.78;;
51692;SDS011;37777;53.066;21.638;2022-12-11T17:31:49;8.93;;;5.47;;
51692;SDS011;37777;53.066;21.638;2022-12-11T17:38:53;12.63;;;6.18;;
51692;SDS011;37777;53.066;21.638;2022-12-11T17:45:56;6.28;;;4.35;;
51692;SDS011;37777;53.066;21.638;2022-12-11T17:52:58;8.95;;;6.10;;
51692;SDS011;37777;53.066;21.638;2022-12-11T18:00:01;6.65;;;5.28;;
51692;SDS011;37777;53.066;21.638;2022-12-11T18:07:04;9.50;;;6.22;;
51692;SDS011;37777;53.066;21.638;2022-12-11T18:14:06;9.80;;;6.68;;
51692;SDS011;37777;53.066;21.638;2022-12-11T18:21:18;13.10;;;5.15;;
51692;SDS011;37777;53.066;21.638;2022-12-11T18:28:22;9.52;;;5.65;;
51692;SDS011;37777;53.066;21.638;2022-12-11T18:35:26;4.22;;;3.88;;
51692;SDS011;37777;53.066;21.638;2022-12-11T18:42:31;9.95;;;6.03;;
51692;SDS011;37777;53.066;21.638;2022-12-11T18:49:35;6.70;;;5.75;;
51692;SDS011;37777;53.066;21.638;2022-12-11T18:56:38;8.82;;;5.35;;
51692;SDS011;37777;53.066;21.638;2022-12-11T19:03:43;12.27;;;5.57;;
51692;SDS011;37777;53.066;21.638;2022-12-11T19:11:03;15.10;;;8.50;;
51692;SDS011;37777;53.066;21.638;2022-12-11T19:18:08;11.43;;;8.00;;
51692;SDS011;37777;53.066;21.638;2022-12-11T19:25:14;11.00;;;7.13;;
51692;SDS011;37777;53.066;21.638;2022-12-11T19:32:17;9.27;;;6.32;;
51692;SDS011;37777;53.066;21.638;2022-12-11T19:39:21;11.75;;;5.32;;
51692;SDS011;37777;53.066;21.638;2022-12-11T19:46:25;14.98;;;8.15;;
51692;SDS011;37777;53.066;21.638;2022-12-11T19:53:28;6.93;;;5.68;;
51692;SDS011;37777;53.066;21.638;2022-12-11T20:00:34;9.93;;;7.15;;
51692;SDS011;37777;53.066;21.638;2022-12-11T20:07:39;5.80;;;5.10;;
51692;SDS011;37777;53.066;21.638;2022-12-11T20:14:44;6.63;;;5.35;;
51692;SDS011;37777;53.066;21.638;2022-12-11T20:21:49;8.75;;;4.93;;
51692;SDS011;37777;53.066;21.638;2022-12-11T20:28:54;12.60;;;6.60;;
51692;SDS011;37777;53.066;21.638;2022-12-11T20:35:57;14.15;;;8.13;;
51692;SDS011;37777;53.066;21.638;2022-12-11T20:43:00;6.20;;;5.47;;
51692;SDS011;37777;53.066;21.638;2022-12-11T20:50:03;15.48;;;6.45;;
51692;SDS011;37777;53.066;21.638;2022-12-11T20:57:06;7.55;;;5.72;;
51692;SDS011;37777;53.066;21.638;2022-12-11T21:04:09;7.60;;;5.32;;
51692;SDS011;37777;53.066;21.638;2022-12-11T21:11:12;10.00;;;5.72;;
51692;SDS011;37777;53.066;21.638;2022-12-11T21:18:17;8.82;;;6.18;;
51692;SDS011;37777;53.066;21.638;2022-12-11T21:25:25;10.20;;;6.10;;
51692;SDS011;37777;53.066;21.638;2022-12-11T21:32:27;16.13;;;6.88;;
51692;SDS011;37777;53.066;21.638;2022-12-11T21:39:30;8.25;;;5.63;;
51692;SDS011;37777;53.066;21.638;2022-12-11T21:46:42;12.27;;;5.80;;
51692;SDS011;37777;53.066;21.638;2022-12-11T21:53:44;19.13;;;7.50;;
51692;SDS011;37777;53.066;21.638;2022-12-11T22:00:46;10.35;;;6.75;;
51692;SDS011;37777;53.066;21.638;2022-12-11T22:07:48;14.40;;;7.45;;
51692;SDS011;37777;53.066;21.638;2022-12-11T22:14:51;12.15;;;6.35;;
51692;SDS011;37777;53.066;21.638;2022-12-11T22:21:53;8.48;;;5.50;;
51692;SDS011;37777;53.066;21.638;2022-12-11T22:28:55;10.27;;;5.93;;
51692;SDS011;37777;53.066;21.638;2022-12-11T22:35:58;6.47;;;5.55;;
51692;SDS011;37777;53.066;21.638;2022-12-11T22:43:01;7.78;;;5.95;;
51692;SDS011;37777;53.066;21.638;2022-12-11T22:50:03;6.90;;;5.10;;
51692;SDS011;37777;53.066;21.638;2022-12-11T22:57:06;6.45;;;5.53;;
51692;SDS011;37777;53.066;21.638;2022-12-11T23:04:09;7.47;;;5.25;;
51692;SDS011;37777;53.066;21.638;2022-12-11T23:11:19;6.05;;;5.47;;
51692;SDS011;37777;53.066;21.638;2022-12-11T23:18:22;6.45;;;4.80;;
51692;SDS011;37777;53.066;21.638;2022-12-11T23:25:24;7.03;;;5.15;;
51692;SDS011;37777;53.066;21.638;2022-12-11T23:32:28;11.02;;;5.55;;
51692;SDS011;37777;53.066;21.638;2022-12-11T23:39:30;12.88;;;6.20;;
51692;SDS011;37777;53.066;21.638;2022-12-11T23:46:32;13.30;;;5.63;;
51692;SDS011;37777;53.066;21.638;2022-12-11T23:53:34;6.82;;;5.20;;
